Time;durP1;ratioP1;P1;durP2;ratioP2;P2;SDS_P1;SDS_P2;PMS_P1;PMS_P2;Temp;Humidity;BMP_temperature;BMP_pressure;BME280_temperature;BME280_humidity;BME280_pressure;Samples;Min_cycle;Max_cycle;Signal;HPM_P1;HPM_P2
2021/12/05 00:24:16;;;;;;;;;0.00;0.00;;;;;7.56;69.64;100081.19;5057536;28;45635;-80
2021/12/05 00:26:50;;;;;;;;;2.00;1.00;;;;;7.56;69.97;100077.66;5051476;28;46955;-80
2021/12/05 00:29:24;;;;;;;;;1.00;0.00;;;;;7.51;69.89;100076.72;5050687;28;45452;-80
2021/12/05 00:45:15;;;;;;;;;0.00;0.00;;;;;7.37;69.94;100066.06;5056995;28;45422;-80
2021/12/05 00:57:41;;;;;;;;;1.00;0.00;;;;;7.23;70.21;100046.63;5053508;28;46487;-79
2021/12/05 01:02:49;;;;;;;;;0.00;0.00;;;;;7.29;70.13;100038.81;5039294;28;45554;-81
2021/12/05 01:11:07;;;;;;;;;1.50;0.00;;;;;7.24;69.98;100030.88;5035332;28;45400;-81
2021/12/05 01:16:12;;;;;;;;;1.00;0.00;;;;;7.16;70.01;100023.81;5049794;28;45387;-80
2021/12/05 01:18:38;;;;;;;;;0.00;0.00;;;;;7.17;70.33;100042.19;5055956;28;46745;-79
2021/12/05 01:21:09;;;;;;;;;0.00;0.00;;;;;7.14;70.20;100038.63;5057980;28;45210;-79
2021/12/05 01:26:09;;;;;;;;;0.00;0.00;;;;;7.05;70.47;100026.31;5057200;28;45331;-80
2021/12/05 01:31:34;;;;;;;;;0.00;0.00;;;;;7.02;70.36;100032.38;5060148;28;45629;-80
2021/12/05 01:58:15;;;;;;;;;2.00;0.00;;;;;7.02;70.41;100008.75;4957867;28;45502;-80
2021/12/05 02:29:29;;;;;;;;;1.25;0.00;;;;;6.93;70.43;100005.16;5052519;28;45534;-80
2021/12/05 02:36:49;;;;;;;;;0.00;0.00;;;;;6.85;70.52;99996.31;5024788;28;45482;-80
2021/12/05 02:41:47;;;;;;;;;1.00;0.00;;;;;6.89;70.56;100004.25;5040854;28;45542;-79
2021/12/05 02:46:46;;;;;;;;;0.00;0.00;;;;;6.87;70.64;99987.59;5044233;28;45421;-80
2021/12/05 02:49:14;;;;;;;;;0.00;0.00;;;;;6.88;70.67;99985.84;5056114;28;45335;-80
2021/12/05 02:51:40;;;;;;;;;0.00;0.00;;;;;6.82;70.41;99986.66;5038798;28;45480;-79
2021/12/05 02:54:17;;;;;;;;;0.00;0.00;;;;;6.89;70.73;99993.75;5055418;28;46481;-81
2021/12/05 02:56:46;;;;;;;;;0.00;0.00;;;;;6.83;70.59;99984.06;5040071;28;45230;-80
2021/12/05 02:59:41;;;;;;;;;1.50;0.00;;;;;6.89;70.50;99993.75;5048227;28;45524;-80
2021/12/05 03:02:13;;;;;;;;;0.00;0.00;;;;;6.87;70.67;99977.13;5043968;28;45351;-82
2021/12/05 03:04:41;;;;;;;;;0.00;0.00;;;;;6.86;70.77;99990.19;5035469;28;47292;-80
2021/12/05 03:07:09;;;;;;;;;1.00;0.00;;;;;6.79;70.61;99963.88;5044962;28;45562;-80
2021/12/05 03:09:35;;;;;;;;;0.00;0.00;;;;;6.80;70.44;99970.00;5050196;28;45567;-80
2021/12/05 03:12:03;;;;;;;;;2.00;0.00;;;;;6.83;70.59;99978.81;5019637;28;45476;-81
2021/12/05 03:14:28;;;;;;;;;0.00;0.00;;;;;6.81;70.66;99975.25;5026089;28;46331;-80
2021/12/05 03:16:59;;;;;;;;;0.00;0.00;;;;;6.72;70.59;99963.81;5031756;28;45214;-80
2021/12/05 03:19:25;;;;;;;;;0.00;0.00;;;;;6.77;70.63;99970.88;5016778;28;45467;-80
2021/12/05 03:21:51;;;;;;;;;0.00;0.00;;;;;6.77;70.56;99978.72;5008387;28;45616;-81
2021/12/05 03:24:20;;;;;;;;;0.00;0.00;;;;;6.77;70.70;99975.22;5031710;28;47478;-80
2021/12/05 03:26:47;;;;;;;;;1.00;0.00;;;;;6.74;70.51;99967.31;5028460;28;45722;-80
2021/12/05 03:29:14;;;;;;;;;0.00;0.00;;;;;6.71;70.62;99965.53;5012611;28;45631;-81
2021/12/05 03:31:39;;;;;;;;;0.00;0.00;;;;;6.72;70.51;99966.44;5024674;28;45512;-80
2021/12/05 03:34:05;;;;;;;;;0.00;0.00;;;;;6.65;70.49;99952.31;5029416;28;46444;-80
2021/12/05 03:36:31;;;;;;;;;0.00;0.00;;;;;6.68;70.71;99956.75;5034742;28;45448;-81
2021/12/05 03:38:56;;;;;;;;;0.00;0.00;;;;;6.67;70.41;99962.84;5034681;28;45745;-80
2021/12/05 03:41:22;;;;;;;;;0.75;0.00;;;;;6.64;70.61;99947.94;5036233;28;45502;-81
2021/12/05 03:43:49;;;;;;;;;1.00;0.00;;;;;6.68;70.58;99964.63;5001856;28;58033;-80
2021/12/05 03:46:15;;;;;;;;;0.00;0.00;;;;;6.71;70.44;99962.00;5014446;28;45548;-80
2021/12/05 03:48:46;;;;;;;;;0.00;0.00;;;;;6.68;70.71;99960.25;5038127;28;45321;-80
2021/12/05 03:51:13;;;;;;;;;0.00;0.00;;;;;6.70;70.41;99955.00;5037833;28;45544;-80
2021/12/05 03:53:38;;;;;;;;;0.00;0.00;;;;;6.67;70.37;99944.50;5036603;28;46398;-80
2021/12/05 03:56:05;;;;;;;;;0.25;0.00;;;;;6.61;70.33;99939.19;4999830;28;55947;-81
2021/12/05 03:58:31;;;;;;;;;0.75;0.00;;;;;6.66;70.35;99948.88;4996374;28;45532;-80
2021/12/05 04:00:58;;;;;;;;;0.00;0.00;;;;;6.61;70.40;99937.44;5029755;28;45456;-80
2021/12/05 04:03:24;;;;;;;;;0.00;0.00;;;;;6.63;70.13;99948.81;5016843;28;46294;-80
2021/12/05 04:05:55;;;;;;;;;0.00;0.00;;;;;6.61;70.10;99955.78;5030768;28;45335;-80
2021/12/05 04:08:21;;;;;;;;;0.00;0.00;;;;;6.61;70.28;99955.78;5013028;28;45278;-81
2021/12/05 04:10:50;;;;;;;;;0.00;0.00;;;;;6.60;70.37;99951.38;5027734;28;45541;-81
2021/12/05 04:13:15;;;;;;;;;0.00;0.00;;;;;6.62;70.20;99947.06;5044084;28;47444;-80
2021/12/05 04:15:41;;;;;;;;;0.00;0.00;;;;;6.66;70.42;99955.81;5022491;28;45537;-80
2021/12/05 04:18:06;;;;;;;;;0.00;0.00;;;;;6.67;69.98;99955.00;5035824;28;51081;-80
2021/12/05 04:20:31;;;;;;;;;0.00;0.00;;;;;6.65;69.88;99951.44;5016406;28;45463;-81
2021/12/05 04:22:57;;;;;;;;;0.00;0.00;;;;;6.61;69.88;99941.81;5018306;28;47319;-80
2021/12/05 04:25:22;;;;;;;;;1.00;0.00;;;;;6.62;69.99;99957.56;5036385;28;45491;-80
2021/12/05 04:27:48;;;;;;;;;0.00;0.00;;;;;6.61;69.85;99945.31;5036528;28;45679;-79
2021/12/05 04:30:15;;;;;;;;;0.00;0.00;;;;;6.58;69.57;99947.88;5034610;28;45217;-79
2021/12/05 04:32:40;;;;;;;;;0.00;0.00;;;;;6.57;69.90;99952.25;5017275;28;46784;-79
2021/12/05 04:35:06;;;;;;;;;0.00;0.00;;;;;6.56;69.68;99953.09;5035418;28;59964;-80
2021/12/05 04:37:31;;;;;;;;;0.00;0.00;;;;;6.50;69.54;99932.06;5030024;28;45380;-79
2021/12/05 04:39:57;;;;;;;;;0.00;0.00;;;;;6.51;69.48;99932.94;5010059;28;54355;-80
2021/12/05 04:42:23;;;;;;;;;1.00;0.00;;;;;6.53;69.85;99933.81;5005011;28;45652;-79
2021/12/05 04:44:48;;;;;;;;;0.00;0.00;;;;;6.48;69.58;99946.00;5034811;28;45257;-80
2021/12/05 04:47:13;;;;;;;;;0.00;0.00;;;;;6.45;69.53;99922.38;5035540;28;45369;-80
2021/12/05 04:49:40;;;;;;;;;0.50;0.00;;;;;6.46;69.50;99932.88;5021271;28;50169;-80
2021/12/05 04:52:06;;;;;;;;;0.50;0.00;;;;;6.43;69.79;99940.69;5035729;28;47267;-79
2021/12/05 04:54:32;;;;;;;;;0.00;0.00;;;;;6.41;70.11;99925.81;5034647;28;45410;-80
2021/12/05 04:56:57;;;;;;;;;0.00;0.00;;;;;6.41;69.63;99923.19;5051400;28;45297;-82
2021/12/05 04:59:24;;;;;;;;;0.00;0.00;;;;;6.38;69.91;99925.75;5028050;28;50202;-80
2021/12/05 05:01:51;;;;;;;;;0.00;0.00;;;;;6.35;69.74;99907.38;5034973;28;46601;-81
2021/12/05 05:04:26;;;;;;;;;0.00;0.00;;;;;6.32;70.10;99915.19;5037953;28;45535;-80
2021/12/05 05:06:51;;;;;;;;;0.25;0.00;;;;;6.34;70.16;99914.38;5006248;28;45341;-80
2021/12/05 05:09:17;;;;;;;;;0.00;0.00;;;;;6.38;69.83;99913.53;5038125;28;45419;-81
2021/12/05 05:11:42;;;;;;;;;0.75;0.00;;;;;6.40;69.96;99917.06;5015185;28;48144;-80
2021/12/05 05:14:09;;;;;;;;;0.00;0.00;;;;;6.44;69.99;99917.97;5041340;28;45514;-80
2021/12/05 05:16:34;;;;;;;;;0.00;0.00;;;;;6.46;69.76;99918.88;5021275;28;45467;-79
2021/12/05 05:19:01;;;;;;;;;0.00;0.00;;;;;6.49;69.95;99909.28;5039333;28;45509;-79
2021/12/05 05:46:07;;;;;;;;;0.00;0.00;;;;;6.76;70.01;99923.59;5040075;28;45408;-81
2021/12/05 05:50:38;;;;;;;;;0.00;0.00;;;;;6.83;70.29;99938.56;5038026;28;45277;-80
2021/12/05 05:53:03;;;;;;;;;0.00;0.00;;;;;6.86;70.06;99932.47;5054536;28;47014;-80
2021/12/05 05:55:28;;;;;;;;;0.00;0.00;;;;;6.82;70.47;99923.69;5037665;28;57378;-80
2021/12/05 06:00:32;;;;;;;;;0.25;0.00;;;;;6.79;70.11;99915.78;5041636;28;45399;-80
2021/12/05 06:05:41;;;;;;;;;0.00;0.00;;;;;6.73;70.34;99897.34;5022924;28;45575;-79
2021/12/05 06:08:06;;;;;;;;;2.00;0.00;;;;;6.76;70.36;99908.72;5029105;28;57852;-80
2021/12/05 06:10:32;;;;;;;;;0.00;0.00;;;;;6.79;70.40;99902.66;5052692;28;54132;-80
2021/12/05 06:12:58;;;;;;;;;0.00;0.00;;;;;6.79;70.43;99886.91;5028485;28;45403;-80
2021/12/05 06:15:24;;;;;;;;;0.75;0.00;;;;;6.78;70.36;99893.91;5036982;28;45892;-79
2021/12/05 06:17:50;;;;;;;;;1.00;0.00;;;;;6.80;70.59;99901.78;5027429;28;45516;-80
2021/12/05 06:20:17;;;;;;;;;0.50;0.00;;;;;6.82;70.50;99906.22;5037131;28;45178;-80
2021/12/05 06:22:46;;;;;;;;;0.00;0.00;;;;;6.80;70.56;99907.91;5038160;28;47482;-79
2021/12/05 06:25:18;;;;;;;;;0.00;0.00;;;;;6.85;70.34;99917.59;5042571;28;45256;-81
2021/12/05 06:27:44;;;;;;;;;0.00;0.00;;;;;6.83;70.52;99910.59;5050982;28;45380;-81
2021/12/05 06:30:15;;;;;;;;;1.00;0.00;;;;;6.87;70.71;99907.97;5025761;28;45388;-81
2021/12/05 06:38:07;;;;;;;;;0.75;0.00;;;;;6.88;70.41;99899.28;5032333;28;45952;-79
2021/12/05 06:40:54;;;;;;;;;2.00;0.00;;;;;6.94;70.48;99897.59;5039617;28;45493;-80
2021/12/05 06:46:16;;;;;;;;;0.00;0.00;;;;;7.07;70.57;99904.69;5040573;28;45539;-80
2021/12/05 06:48:43;;;;;;;;;1.00;0.00;;;;;7.10;70.40;99906.50;5048523;28;45371;-81
2021/12/05 06:51:12;;;;;;;;;1.00;0.00;;;;;7.16;70.21;99924.94;5049610;28;45491;-80
2021/12/05 06:53:37;;;;;;;;;0.00;0.00;;;;;7.20;70.75;99929.34;5037482;28;46520;-81
2021/12/05 06:56:03;;;;;;;;;1.00;0.00;;;;;7.16;71.74;99940.69;5039708;28;45631;-79
2021/12/05 06:58:30;;;;;;;;;0.75;0.00;;;;;7.03;72.33;99939.69;5040959;28;45269;-80
2021/12/05 07:00:56;;;;;;;;;0.00;0.00;;;;;6.93;73.46;99934.31;5037772;28;45511;-80
2021/12/05 07:03:21;;;;;;;;;0.50;0.00;;;;;6.86;74.18;99941.22;5037021;28;46664;-78
2021/12/05 07:05:57;;;;;;;;;1.00;0.00;;;;;6.82;74.40;99937.69;5021522;28;56828;-79
2021/12/05 07:08:26;;;;;;;;;1.25;0.00;;;;;6.76;75.54;99940.22;5042896;28;45562;-79
2021/12/05 07:21:45;;;;;;;;;0.00;0.00;;;;;6.50;75.44;99939.91;5034140;28;45445;-81
2021/12/05 07:24:26;;;;;;;;;0.00;0.00;;;;;6.48;75.70;99935.50;5036522;28;46604;-80
2021/12/05 07:40:46;;;;;;;;;0.25;0.00;;;;;6.60;75.33;99927.78;5046243;28;45450;-79
2021/12/05 07:43:07;;;;;;;;;1.00;1.00;;;;;6.53;75.25;99929.44;5043688;28;45531;-80
2021/12/05 07:45:37;;;;;;;;;0.00;0.00;;;;;6.57;75.31;99933.00;5049581;28;46765;-79
2021/12/05 07:48:10;;;;;;;;;1.75;0.00;;;;;6.58;75.24;99945.25;5052405;28;45501;-80
2021/12/05 07:50:52;;;;;;;;;0.50;0.00;;;;;6.58;75.21;99937.38;5038217;28;45508;-81
2021/12/05 07:53:30;;;;;;;;;5.00;0.25;;;;;6.66;75.39;99940.09;5030677;28;45531;-80
2021/12/05 07:56:02;;;;;;;;;0.00;0.00;;;;;6.70;75.33;99945.38;5036923;28;46080;-79
2021/12/05 07:58:49;;;;;;;;;0.00;0.00;;;;;6.75;75.20;99948.06;5036401;28;45403;-79
2021/12/05 08:14:47;;;;;;;;;1.00;0.00;;;;;7.00;76.59;99947.50;5022639;28;45525;-79
2021/12/05 08:17:18;;;;;;;;;2.50;0.50;;;;;6.98;76.10;99940.50;5027360;28;46401;-80
2021/12/05 08:19:44;;;;;;;;;0.00;0.00;;;;;6.97;75.68;99949.22;5031725;28;45615;-80
2021/12/05 08:22:10;;;;;;;;;0.25;0.00;;;;;6.91;76.11;99936.03;5010171;28;45195;-79
2021/12/05 08:24:40;;;;;;;;;0.00;0.00;;;;;6.97;75.80;99942.22;5026026;28;45431;-78
2021/12/05 08:27:06;;;;;;;;;0.00;0.00;;;;;7.01;75.99;99948.38;5040337;28;47576;-78
2021/12/05 08:29:44;;;;;;;;;0.00;0.00;;;;;7.03;75.73;99950.19;5035783;28;45583;-78
2021/12/05 08:34:48;;;;;;;;;2.00;0.00;;;;;7.13;75.82;99955.50;5046348;28;45453;-77
2021/12/05 08:43:00;;;;;;;;;0.25;0.25;;;;;7.21;75.31;99961.72;5046011;28;46068;-77
2021/12/05 09:21:27;;;;;;;;;2.00;1.00;;;;;7.55;74.46;99981.31;5048544;28;45618;-80
2021/12/05 09:26:44;;;;;;;;;0.00;0.00;;;;;7.77;74.22;99988.53;5052995;28;45443;-79
2021/12/05 10:01:48;;;;;;;;;2.00;1.00;;;;;8.17;73.54;99986.22;5046805;28;45622;-77
2021/12/05 10:02:10;;;;;;;;;2.33;1.00;;;;;8.25;73.01;99995.03;5055699;28;45704;-77
2021/12/05 10:07:41;;;;;;;;;1.67;1.00;;;;;8.30;73.01;100006.47;5062689;28;45525;-81
2021/12/05 10:13:42;;;;;;;;;1.00;1.00;;;;;8.47;72.76;100004.00;5074282;22;46048;-80
2021/12/05 10:16:26;;;;;;;;;2.33;1.33;;;;;8.47;72.92;99985.59;5030642;28;47547;-80
2021/12/05 10:19:26;;;;;;;;;5.75;1.75;;;;;8.56;72.58;99990.00;5010081;28;45670;-81
2021/12/05 10:36:22;;;;;;;;;3.00;1.00;;;;;8.97;71.58;99986.69;5029783;28;45405;-79
2021/12/05 10:39:00;;;;;;;;;3.00;1.25;;;;;8.97;71.46;99987.56;5020081;28;47366;-79
2021/12/05 10:44:10;;;;;;;;;3.00;2.00;;;;;8.91;71.75;99972.63;5031609;28;45447;-79
2021/12/05 10:46:39;;;;;;;;;6.00;2.00;;;;;8.88;71.61;99979.63;5035273;28;45484;-79
2021/12/05 10:49:14;;;;;;;;;1.00;1.00;;;;;8.85;71.39;99984.91;5035307;28;45483;-79
2021/12/05 10:51:57;;;;;;;;;6.00;2.00;;;;;8.78;71.31;99973.44;5035339;28;45308;-80
2021/12/05 10:54:27;;;;;;;;;2.00;2.00;;;;;8.87;71.31;99977.88;5036431;28;45348;-79
2021/12/05 10:57:03;;;;;;;;;2.50;2.50;;;;;8.88;71.33;99977.00;5028099;28;45639;-80
2021/12/05 10:59:39;;;;;;;;;3.00;3.00;;;;;8.87;71.46;99962.09;5033498;28;46311;-79
2021/12/05 11:02:11;;;;;;;;;6.75;5.75;;;;;8.88;71.59;99963.84;5035073;28;45300;-79
2021/12/05 11:04:43;;;;;;;;;3.00;1.67;;;;;8.91;71.63;99980.53;5003569;28;45293;-79
2021/12/05 11:07:10;;;;;;;;;2.33;2.00;;;;;8.88;71.32;99974.38;5035140;28;45563;-78
2021/12/05 11:09:46;;;;;;;;;3.00;3.00;;;;;8.86;71.69;99968.22;5035045;28;47054;-78
2021/12/05 11:12:18;;;;;;;;;5.00;2.67;;;;;8.76;71.62;99956.78;5034775;28;45620;-79
2021/12/05 11:14:58;;;;;;;;;2.00;1.00;;;;;8.76;72.29;99972.56;5012550;28;45693;-79
2021/12/05 11:17:36;;;;;;;;;2.00;2.00;;;;;8.66;73.07;99974.28;5011447;28;45794;-78
2021/12/05 11:20:12;;;;;;;;;4.33;1.00;;;;;8.59;73.08;99975.13;5013820;28;46188;-78
2021/12/05 11:22:42;;;;;;;;;5.00;1.00;;;;;8.54;73.36;99986.50;5015330;28;45290;-78
2021/12/05 11:25:30;;;;;;;;;5.75;2.00;;;;;8.49;73.39;99986.47;5015268;28;45463;-78
2021/12/05 11:28:03;;;;;;;;;2.00;2.00;;;;;8.48;73.71;99983.84;5030923;28;45662;-78
2021/12/05 11:30:34;;;;;;;;;8.50;7.75;;;;;8.41;74.02;99969.75;5017106;28;46410;-78
2021/12/05 11:33:05;;;;;;;;;68.25;51.00;;;;;8.42;74.07;99982.06;5006616;28;45529;-78
2021/12/05 11:35:37;;;;;;;;;6.25;6.25;;;;;8.37;75.83;99983.78;5007174;28;45210;-78
2021/12/05 11:38:17;;;;;;;;;4.00;3.00;;;;;8.25;75.22;99989.78;5008343;28;45556;-78
2021/12/05 11:41:02;;;;;;;;;3.00;2.00;;;;;8.15;75.84;100001.13;5016173;28;45867;-79
2021/12/05 11:43:36;;;;;;;;;8.25;6.00;;;;;7.97;75.91;99995.72;5015433;28;45356;-79
2021/12/05 11:46:02;;;;;;;;;3.50;3.00;;;;;7.90;76.95;100015.81;4982440;28;45640;-78
2021/12/05 11:48:39;;;;;;;;;2.00;2.00;;;;;7.82;77.26;100018.34;5014639;28;45384;-79
2021/12/05 11:51:41;;;;;;;;;5.00;5.00;;;;;7.69;77.29;100031.38;5015099;28;46981;-78
2021/12/05 11:54:23;;;;;;;;;5.75;3.00;;;;;7.59;79.41;100025.16;4983728;28;45561;-79
2021/12/05 11:56:57;;;;;;;;;1.25;1.25;;;;;7.58;79.55;100037.41;5015273;28;45440;-79
2021/12/05 11:59:35;;;;;;;;;1.00;1.00;;;;;7.51;78.97;100026.81;5015982;28;45452;-79
2021/12/05 12:02:20;;;;;;;;;0.00;0.00;;;;;7.46;79.34;100032.03;5014834;28;46458;-80
2021/12/05 12:05:03;;;;;;;;;2.00;0.00;;;;;7.42;80.28;100034.59;5015029;28;45499;-79
2021/12/05 12:07:43;;;;;;;;;2.75;1.00;;;;;7.37;79.68;100033.69;5012021;28;45381;-79
2021/12/05 12:10:16;;;;;;;;;2.50;2.50;;;;;7.35;81.08;100024.03;5009475;28;45286;-79
2021/12/05 12:12:47;;;;;;;;;1.75;1.75;;;;;7.37;80.11;100026.69;5006611;28;47993;-80
2021/12/05 12:15:14;;;;;;;;;9.50;7.50;;;;;7.37;79.44;100023.16;5021481;28;45626;-79
2021/12/05 12:17:40;;;;;;;;;2.00;2.00;;;;;7.35;79.35;100033.66;5017857;28;45343;-78
2021/12/05 12:20:07;;;;;;;;;3.00;3.00;;;;;7.29;79.31;100026.56;5018576;28;45771;-80
2021/12/05 12:22:32;;;;;;;;;1.00;1.00;;;;;7.21;79.19;100022.13;5019020;28;47488;-79
2021/12/05 12:25:01;;;;;;;;;4.75;3.00;;;;;7.20;79.20;100038.75;5018955;28;47274;-78
2021/12/05 12:27:27;;;;;;;;;2.25;2.25;;;;;7.11;78.71;100034.25;5018131;28;45334;-79
2021/12/05 12:29:52;;;;;;;;;1.00;1.00;;;;;7.08;78.97;100048.22;5008428;28;45633;-79
2021/12/05 12:32:22;;;;;;;;;11.50;6.00;;;;;7.08;79.57;100036.81;5020506;28;46531;-77
2021/12/05 12:34:50;;;;;;;;;2.00;2.00;;;;;7.13;79.22;100050.00;5026612;28;45387;-78
2021/12/05 12:37:15;;;;;;;;;3.00;3.00;;;;;7.12;79.50;100045.63;5005684;28;45566;-78
2021/12/05 12:39:44;;;;;;;;;5.25;5.00;;;;;7.11;80.01;100046.50;5037467;28;45542;-78
2021/12/05 12:42:18;;;;;;;;;3.50;3.50;;;;;7.16;80.07;100060.56;5037020;28;46632;-78
2021/12/05 12:44:58;;;;;;;;;4.25;4.00;;;;;7.23;79.40;100054.50;5039203;28;45167;-78
2021/12/05 12:47:50;;;;;;;;;4.75;4.50;;;;;7.33;79.15;100059.00;5028926;28;45327;-78
2021/12/05 12:50:21;;;;;;;;;5.50;5.25;;;;;7.38;78.46;100053.81;5027551;28;45626;-77
2021/12/05 12:53:02;;;;;;;;;9.50;5.75;;;;;7.43;78.48;100054.75;5038541;28;46962;-77
2021/12/05 12:55:33;;;;;;;;;10.25;8.00;;;;;7.54;78.54;100066.25;5031977;28;45483;-78
2021/12/05 12:58:02;;;;;;;;;7.25;6.00;;;;;7.70;77.99;100062.91;5036617;28;45478;-77
2021/12/05 13:00:30;;;;;;;;;6.25;6.25;;;;;7.84;78.12;100053.44;5021023;28;45523;-78
2021/12/05 13:02:59;;;;;;;;;3.00;3.00;;;;;8.02;77.47;100067.59;5037856;28;47602;-78
2021/12/05 13:11:12;;;;;;;;;8.75;5.00;;;;;8.28;76.45;100062.56;5037245;28;45580;-78
2021/12/05 13:13:39;;;;;;;;;7.00;6.00;;;;;8.37;76.08;100068.81;5043451;28;46790;-78
2021/12/05 13:16:17;;;;;;;;;5.25;5.25;;;;;8.42;75.71;100076.75;5038800;28;45294;-78
2021/12/05 13:18:45;;;;;;;;;7.50;5.75;;;;;8.42;75.67;100075.88;5023696;28;45528;-78
2021/12/05 13:21:17;;;;;;;;;4.25;2.00;;;;;8.48;75.20;100079.41;5028066;28;45488;-78
2021/12/05 13:23:50;;;;;;;;;7.00;5.00;;;;;8.49;75.08;100067.16;5017638;28;46422;-78
2021/12/05 13:26:42;;;;;;;;;5.50;3.00;;;;;8.52;75.02;100067.16;5033815;28;45426;-79
2021/12/05 13:29:19;;;;;;;;;7.00;7.00;;;;;8.48;75.30;100070.66;5036035;28;45420;-78
2021/12/05 13:31:56;;;;;;;;;5.75;5.75;;;;;8.51;74.62;100062.75;5016922;28;45583;-78
2021/12/05 13:34:48;;;;;;;;;2.75;2.00;;;;;8.55;74.59;100073.31;5036369;28;47707;-78
2021/12/05 13:37:15;;;;;;;;;7.00;6.50;;;;;8.56;74.46;100072.44;5027001;28;46100;-79
2021/12/05 13:39:47;;;;;;;;;5.75;5.75;;;;;8.58;74.36;100077.75;5035319;28;45424;-79
2021/12/05 13:42:34;;;;;;;;;5.00;5.00;;;;;8.64;74.61;100080.41;5036159;28;45658;-79
2021/12/05 13:44:59;;;;;;;;;7.75;6.50;;;;;8.69;74.45;100088.34;5017835;28;46408;-79
2021/12/05 13:47:45;;;;;;;;;10.00;6.00;;;;;8.78;74.14;100088.38;5025953;28;45281;-79
2021/12/05 13:50:16;;;;;;;;;7.50;5.00;;;;;8.80;73.92;100092.78;5031371;28;45353;-78
2021/12/05 13:52:42;;;;;;;;;5.50;5.50;;;;;8.84;74.13;100085.78;5034562;28;45523;-78
2021/12/05 13:55:29;;;;;;;;;11.75;9.75;;;;;8.87;74.26;100089.31;5014997;28;47467;-79
2021/12/05 13:58:38;;;;;;;;;3.00;3.00;;;;;8.88;74.00;100092.81;5018547;28;46110;-78
2021/12/05 14:01:17;;;;;;;;;5.50;5.00;;;;;8.79;73.70;100090.13;5007305;28;45510;-78
2021/12/05 14:03:51;;;;;;;;;6.75;5.25;;;;;8.82;74.11;100104.19;5036774;28;45205;-79
2021/12/05 14:06:22;;;;;;;;;5.00;5.00;;;;;8.80;73.61;100102.44;5035992;28;47568;-78
2021/12/05 14:08:47;;;;;;;;;8.00;5.50;;;;;8.79;73.67;100098.94;5028632;28;45320;-78
2021/12/05 14:11:13;;;;;;;;;6.50;5.50;;;;;8.76;73.90;100090.13;5012383;28;45770;-78
2021/12/05 14:13:38;;;;;;;;;4.00;3.00;;;;;8.81;73.72;100102.44;5012900;28;51841;-78
2021/12/05 14:16:04;;;;;;;;;6.75;3.00;;;;;8.83;73.56;100102.44;5018114;28;69488;-79
2021/12/05 14:18:29;;;;;;;;;6.75;4.00;;;;;8.84;73.78;100113.00;5036559;28;54239;-79
2021/12/05 14:20:54;;;;;;;;;2.50;2.50;;;;;8.83;73.83;100107.72;5011469;28;59931;-78
2021/12/05 14:23:20;;;;;;;;;6.75;6.75;;;;;8.78;73.63;100118.22;5036036;28;52268;-78
2021/12/05 14:25:47;;;;;;;;;4.50;4.50;;;;;8.75;73.70;100117.31;5035840;28;47572;-78
2021/12/05 14:28:12;;;;;;;;;3.00;3.00;;;;;8.72;73.72;100105.00;5034780;28;45424;-78
2021/12/05 14:30:38;;;;;;;;;10.25;8.00;;;;;8.71;73.55;100126.94;5034674;28;45650;-80
2021/12/05 14:33:03;;;;;;;;;5.50;5.50;;;;;8.62;73.72;100126.88;5003555;28;45704;-79
2021/12/05 14:35:34;;;;;;;;;5.50;5.50;;;;;8.60;73.73;100132.13;5034986;28;64374;-79
2021/12/05 14:38:02;;;;;;;;;6.25;4.75;;;;;8.63;73.76;100132.16;5036162;28;45512;-80
2021/12/05 14:40:31;;;;;;;;;5.33;3.00;;;;;8.68;73.85;100140.06;5035805;28;45311;-80
2021/12/05 14:43:03;;;;;;;;;4.25;4.25;;;;;8.73;73.80;100140.97;5018441;28;45518;-79
2021/12/05 14:45:29;;;;;;;;;9.00;7.00;;;;;8.82;74.11;100148.94;5036490;28;46682;-78
2021/12/05 14:47:56;;;;;;;;;4.25;4.25;;;;;8.81;73.38;100159.47;5017909;28;45491;-77
2021/12/05 14:50:30;;;;;;;;;3.33;3.33;;;;;8.78;73.65;100152.44;5037438;28;45491;-78
2021/12/05 14:52:56;;;;;;;;;6.00;4.33;;;;;8.77;73.65;100166.47;5020068;28;45333;-78
2021/12/05 14:55:23;;;;;;;;;9.75;6.75;;;;;8.71;73.72;100155.88;5036973;28;46209;-78
2021/12/05 14:57:53;;;;;;;;;5.00;5.00;;;;;8.78;73.93;100170.84;5043497;28;45527;-80
2021/12/05 15:00:23;;;;;;;;;5.50;4.25;;;;;8.79;73.76;100169.09;5036492;28;45356;-80
2021/12/05 15:02:49;;;;;;;;;6.00;3.00;;;;;8.78;73.67;100164.72;5034899;28;45562;-80
2021/12/05 15:05:16;;;;;;;;;4.50;3.00;;;;;8.80;73.69;100157.72;5036538;28;47326;-80
2021/12/05 15:07:43;;;;;;;;;8.50;7.00;;;;;8.87;73.74;100181.47;5036581;28;45231;-81
2021/12/05 15:10:08;;;;;;;;;13.00;7.25;;;;;8.83;73.59;100163.88;5035760;28;45504;-80
2021/12/05 15:12:34;;;;;;;;;7.00;7.00;;;;;8.87;73.44;100185.84;5036500;28;46075;-80
2021/12/05 15:15:03;;;;;;;;;6.50;6.00;;;;;8.89;73.53;100194.63;5017319;28;46192;-79
2021/12/05 15:17:32;;;;;;;;;7.50;6.00;;;;;8.86;73.49;100191.97;5016807;28;45551;-80
2021/12/05 15:20:07;;;;;;;;;5.67;3.00;;;;;8.75;73.36;100184.00;5016618;28;45317;-81
2021/12/05 15:22:33;;;;;;;;;10.50;7.75;;;;;8.74;73.63;100191.91;4999492;28;45696;-78
2021/12/05 15:25:00;;;;;;;;;7.00;7.00;;;;;8.74;73.45;100198.03;5017403;28;53720;-79
2021/12/05 15:27:27;;;;;;;;;14.00;13.25;;;;;8.71;73.30;100210.28;5016815;28;45174;-79
2021/12/05 15:30:01;;;;;;;;;19.75;14.75;;;;;8.62;77.99;100219.84;4999072;28;45368;-79
2021/12/05 15:32:29;;;;;;;;;12.50;8.50;;;;;8.65;80.02;100235.69;5019360;28;45460;-79
2021/12/05 15:34:57;;;;;;;;;7.75;7.75;;;;;8.50;81.03;100214.47;5018961;28;46552;-80
2021/12/05 15:37:22;;;;;;;;;10.25;8.25;;;;;8.57;78.01;100239.09;5028737;28;45669;-79
2021/12/05 15:39:49;;;;;;;;;8.25;6.50;;;;;8.49;76.58;100228.50;5012254;28;45610;-79
2021/12/05 15:42:27;;;;;;;;;7.25;6.00;;;;;8.51;75.69;100246.94;5019269;28;45587;-79
2021/12/05 15:44:54;;;;;;;;;11.00;10.00;;;;;8.46;75.88;100243.38;5028142;28;46882;-79
2021/12/05 15:47:22;;;;;;;;;11.25;9.75;;;;;8.42;75.81;100257.38;5027442;28;45246;-79
2021/12/05 15:49:47;;;;;;;;;7.00;6.00;;;;;8.38;75.68;100261.72;5016361;28;45309;-79
2021/12/05 15:52:13;;;;;;;;;11.75;7.75;;;;;8.32;76.07;100262.50;5016952;28;45476;-79
2021/12/05 15:54:39;;;;;;;;;7.50;5.75;;;;;8.28;75.94;100270.34;5016271;28;47046;-79
2021/12/05 15:57:18;;;;;;;;;11.00;10.75;;;;;8.27;75.85;100287.00;5019124;28;45451;-79
2021/12/05 15:59:45;;;;;;;;;29.75;23.25;;;;;8.23;75.86;100282.56;4999766;28;45395;-79
2021/12/05 16:02:11;;;;;;;;;14.75;11.25;;;;;8.30;75.77;100294.91;5011504;28;45353;-79
2021/12/05 16:04:38;;;;;;;;;24.75;17.00;;;;;8.31;75.63;100297.56;5015047;28;46618;-79
2021/12/05 16:07:08;;;;;;;;;8.25;8.25;;;;;8.30;75.68;100302.78;4998499;28;45371;-79
2021/12/05 16:09:34;;;;;;;;;24.50;23.00;;;;;8.32;75.45;100312.47;5016249;28;45609;-79
2021/12/05 16:12:09;;;;;;;;;20.50;20.25;;;;;8.35;75.35;100316.88;4997100;28;45610;-79
2021/12/05 16:14:36;;;;;;;;;15.50;12.00;;;;;8.37;75.33;100326.59;5009621;28;46595;-80
2021/12/05 16:17:14;;;;;;;;;23.00;21.00;;;;;8.33;75.24;100318.63;5033924;28;45307;-79
2021/12/05 16:19:39;;;;;;;;;17.50;13.25;;;;;8.39;75.17;100332.75;5023787;28;45436;-79
2021/12/05 16:22:08;;;;;;;;;14.25;12.00;;;;;8.43;74.95;100344.22;5015090;28;52400;-79
2021/12/05 16:24:36;;;;;;;;;15.50;12.50;;;;;8.45;75.12;100338.97;5036092;28;45741;-79
2021/12/05 16:27:04;;;;;;;;;11.50;9.75;;;;;8.50;75.26;100334.63;5017805;28;45283;-80
2021/12/05 16:29:29;;;;;;;;;10.25;10.25;;;;;8.54;75.17;100334.69;5017356;28;45234;-79
2021/12/05 16:31:57;;;;;;;;;19.25;13.25;;;;;8.53;75.06;100332.94;5036429;28;45306;-79
2021/12/05 16:34:32;;;;;;;;;18.75;16.75;;;;;8.59;75.01;100338.25;5018197;28;47301;-80
2021/12/05 16:37:02;;;;;;;;;31.00;28.50;;;;;8.63;74.84;100347.97;5035999;28;45419;-80
2021/12/05 16:39:27;;;;;;;;;45.75;39.25;;;;;8.65;74.65;100358.50;5035157;28;45166;-79
2021/12/05 16:41:54;;;;;;;;;30.50;23.25;;;;;8.60;74.80;100353.16;5033837;28;45566;-79
2021/12/05 16:44:28;;;;;;;;;27.25;25.25;;;;;8.65;74.86;100358.50;5034821;28;47720;-80
2021/12/05 16:46:55;;;;;;;;;23.00;19.00;;;;;8.66;74.66;100369.03;5034882;28;45249;-79
2021/12/05 16:49:30;;;;;;;;;26.50;20.50;;;;;8.66;74.57;100378.69;5033027;28;45439;-80
2021/12/05 16:51:57;;;;;;;;;32.50;29.00;;;;;8.60;74.51;100363.69;5033973;28;45439;-79
2021/12/05 16:54:25;;;;;;;;;28.25;22.00;;;;;8.65;74.83;100371.66;5033316;28;46954;-80
2021/12/05 16:56:59;;;;;;;;;14.50;10.25;;;;;8.65;74.72;100361.13;5034558;28;45435;-80
2021/12/05 16:59:26;;;;;;;;;19.25;17.50;;;;;8.67;74.60;100377.81;5035251;28;45509;-79
2021/12/05 17:02:20;;;;;;;;;16.00;14.00;;;;;8.70;74.36;100379.59;5037079;28;45638;-79